Flight Track Log - Related Links

Times and Time Zones

All times are in EDT time to prevent confusion due to time zone crossing. See the UAL623 flight status page for this flight to view local times or setup timezone preferences in your user account.

Time Position Orientation Groundspeed Altitude Reporting Facility
EDT Latitude Longitude Course Direction KTS MPH feet Rate Location/Type
Tue 07:38:59 PM 41.9333 -87.9167 253° West 170 196 2,100  Level Chicago TRACON
Tue 07:39:53 PM 41.9167 -87.9667 246° West 169 194 4,100 2,175 Climbing Chicago TRACON
Tue 07:41:00 PM 41.8722 -88.3446 242° Southwest  Level FlightAware Approximate
Tue 07:41:50 PM 41.8567 -88.0908 237° Southwest 248 285 8,300  Level Chicago Center
Tue 07:42:00 PM 41.8318 -88.4902 254° West  Level FlightAware Approximate
Tue 07:42:52 PM 41.8547 -88.1819 268° West 248 285 10,500  Level Chicago Center
Tue 07:43:00 PM 41.7987 -88.6401 254° West  Level FlightAware Approximate
Tue 07:43:54 PM 41.8342 -88.2900 256° West 300 345 12,500  Level Chicago Center
Tue 07:44:00 PM 41.7654 -88.7899 253° West  Level FlightAware Approximate
Tue 07:44:56 PM 41.8047 -88.4350 255° West 342 394 14,500  Level Chicago Center
Tue 07:45:58 PM 41.7775 -88.5664 255° West 366 421 16,300 1,887 Climbing Chicago Center
Tue 07:47:00 PM 41.7472 -88.7061 254° West 387 445 18,400 2,081 Climbing Chicago Center
Tue 07:48:02 PM 41.7172 -88.8508 255° West 402 463 20,600 1,935 Climbing Chicago Center
Tue 07:49:04 PM 41.6858 -88.9956 254° West 407 468 22,400 1,839 Climbing Chicago Center
Tue 07:50:06 PM 41.6475 -89.1750 254° West 419 482 24,400 1,694 Climbing Chicago Center
Tue 07:51:08 PM 41.6156 -89.3283 254° West 430 495 25,900 1,355 Climbing Chicago Center
Tue 07:52:10 PM 41.5811 -89.4836 254° West 437 503 27,200 1,355 Climbing Chicago Center
Tue 07:53:12 PM 41.5458 -89.6464 254° West 449 517 28,700 1,548 Climbing Chicago Center
Tue 07:54:14 PM 41.5111 -89.8031 254° West 445 512 30,400 1,742 Climbing Chicago Center
Tue 07:55:16 PM 41.4703 -89.9914 254° West 441 507 32,300 1,597 Climbing Chicago Center
Tue 07:56:18 PM 41.4342 -90.1464 253° West 440 506 33,700 1,296 Climbing Chicago Center
Tue 07:57:21 PM 41.4006 -90.2986 254° West 434 499 35,000 1,104 Climbing Chicago Center
Tue 07:58:23 PM 41.3625 -90.4647 253° West 433 498 36,000 480 Climbing Chicago Center
Tue 07:59:26 PM 41.3319 -90.6031 254° West 431 496 36,000  Level Chicago Center
Tue 08:00:28 PM 41.2917 -90.7886 254° West 434 499 36,000  Level Chicago Center
Tue 08:01:30 PM 41.2617 -90.9386 255° West 426 490 36,000  Level Chicago Center
Tue 08:02:32 PM 41.2294 -91.0894 254° West 425 489 36,000  Level Chicago Center
Tue 08:03:34 PM 41.1989 -91.2411 255° West 427 491 36,000  Level Chicago Center
Tue 08:04:36 PM 41.1675 -91.3922 255° West 426 490 36,000  Level Chicago Center
Tue 08:05:38 PM 41.1353 -91.5456 254° West 431 496 36,000  Level Chicago Center
Tue 08:06:40 PM 41.0969 -91.7283 255° West 431 496 36,000  Level Chicago Center
Tue 08:07:42 PM 41.0658 -91.8786 255° West 429 494 36,000  Level Chicago Center
Tue 08:08:45 PM 41.0408 -92.0319 258° West 428 493 36,000  Level Chicago Center
Tue 08:09:47 PM 41.0136 -92.1836 257° West 429 494 36,000  Level Chicago Center
Tue 08:10:49 PM 40.9808 -92.3664 257° West 430 495 36,000  Level Chicago Center
Tue 08:11:51 PM 40.9533 -92.5189 257° West 432 497 36,000  Level Chicago Center
Tue 08:12:53 PM 40.9256 -92.6714 256° West 433 498 36,000  Level Chicago Center
Tue 08:13:55 PM 40.8969 -92.8247 256° West 435 501 36,000  Level Chicago Center
Tue 08:14:19 PM 40.8861 -92.8867 257° West 435 501 36,000  Level Minneapolis Center
Tue 08:15:32 PM 40.8578 -93.0381 256° West 433 498 36,000  Level Minneapolis Center
Tue 08:16:35 PM 40.8181 -93.2486 256° West 429 494 36,000  Level Minneapolis Center
Tue 08:17:36 PM 40.7925 -93.4031 258° West 434 499 36,000  Level Minneapolis Center
Tue 08:18:38 PM 40.7694 -93.5567 259° West 436 502 36,000  Level Minneapolis Center
Tue 08:19:40 PM 40.7450 -93.7119 258° West 438 504 36,000  Level Minneapolis Center
Tue 08:20:42 PM 40.7197 -93.8664 258° West 437 503 36,000  Level Minneapolis Center
Tue 08:21:44 PM 40.6886 -94.0528 258° West 438 504 36,000  Level Minneapolis Center
Tue 08:22:45 PM 40.6622 -94.2083 257° West 439 505 36,000  Level Minneapolis Center
Tue 08:23:47 PM 40.6375 -94.3628 258° West 437 503 36,000  Level Minneapolis Center
Tue 08:24:49 PM 40.6117 -94.5175 258° West 438 504 36,000  Level Minneapolis Center
Tue 08:25:51 PM 40.5819 -94.6939 258° West 438 504 36,000  Level Minneapolis Center
Tue 08:26:53 PM 40.5564 -94.8508 258° West 439 505 36,000  Level Minneapolis Center
Tue 08:27:55 PM 40.5292 -95.0061 257° West 436 502 36,000  Level Minneapolis Center
Tue 08:28:56 PM 40.5028 -95.1628 258° West 437 503 36,000 146 Level Minneapolis Center
Tue 08:29:58 PM 40.4758 -95.3219 258° West 441 507 36,300 726 Climbing Minneapolis Center
Tue 08:31:00 PM 40.4486 -95.4758 257° West 437 503 37,500 823 Climbing Minneapolis Center
Tue 08:32:02 PM 40.4161 -95.6583 257° West 431 496 38,000 244 Climbing Minneapolis Center
Tue 08:33:03 PM 40.3894 -95.8156 257° West 434 499 38,000  Level Minneapolis Center
Tue 08:34:05 PM 40.3617 -95.9683 257° West 432 497 38,000  Level Minneapolis Center
Tue 08:35:07 PM 40.3347 -96.1214 257° West 430 495 38,000  Level Minneapolis Center
Tue 08:36:09 PM 40.3058 -96.2769 256° West 435 501 38,000  Level Minneapolis Center
Tue 08:37:11 PM 40.2775 -96.4331 257° West 438 504 38,000  Level Minneapolis Center
Tue 08:38:13 PM 40.2483 -96.5869 256° West 436 502 38,000  Level Minneapolis Center
Tue 08:39:14 PM 40.2192 -96.7417 256° West 437 503 38,000  Level Minneapolis Center
Tue 08:40:16 PM 40.1850 -96.9275 257° West 436 502 38,000  Level Minneapolis Center
Tue 08:41:18 PM 40.1553 -97.0828 256° West 439 505 38,000  Level Minneapolis Center
Tue 08:42:20 PM 40.1269 -97.2378 257° West 438 504 38,000  Level Minneapolis Center
Tue 08:43:22 PM 40.0981 -97.3808 255° West 439 505 38,000  Level Minneapolis Center
Tue 08:44:24 PM 40.0611 -97.5681 256° West 442 509 38,000  Level Minneapolis Center
Tue 08:45:26 PM 40.0314 -97.7242 256° West 442 509 38,000  Level Minneapolis Center
Tue 08:46:28 PM 40.0006 -97.8808 256° West 444 511 38,000  Level Minneapolis Center
Tue 08:47:30 PM 39.9697 -98.0378 256° West 446 513 38,000  Level Minneapolis Center
Tue 08:48:32 PM 39.9378 -98.1964 255° West 449 517 38,000  Level Minneapolis Center
Tue 08:49:34 PM 39.9058 -98.3544 255° West 450 518 38,000  Level Minneapolis Center
Tue 08:50:36 PM 39.8728 -98.5133 255° West 452 520 38,000  Level Minneapolis Center
Tue 08:51:37 PM 39.8342 -98.7039 255° West 452 520 38,000  Level Minneapolis Center
Tue 08:52:39 PM 39.8011 -98.8628 255° West 453 521 38,000  Level Minneapolis Center
Tue 08:53:41 PM 39.7686 -99.0217 255° West 453 521 38,000  Level Minneapolis Center
Tue 08:54:56 PM 39.7278 -99.2122 254° West 454 522 38,000  Level Denver Center
Tue 08:55:57 PM 39.6936 -99.3731 255° West 460 529 38,000  Level Denver Center
Tue 08:56:59 PM 39.6597 -99.5333 255° West 460 529 38,000  Level Denver Center
Tue 08:58:01 PM 39.6247 -99.6933 254° West 460 529 38,000  Level Denver Center
Tue 08:59:02 PM 39.5908 -99.8536 255° West 460 529 38,000  Level Denver Center
Tue 09:00:04 PM 39.5522 -100.0264 254° West 460 529 38,000  Level Denver Center
Tue 09:01:06 PM 39.5128 -100.2056 254° West 462 532 38,000  Level Denver Center
Tue 09:02:07 PM 39.4792 -100.3569 254° West 459 528 38,000  Level Denver Center
Tue 09:03:09 PM 39.4453 -100.5111 254° West 461 531 38,000  Level Denver Center
Tue 09:04:10 PM 39.4050 -100.6906 254° West 464 534 38,000  Level Denver Center
Tue 09:05:12 PM 39.3711 -100.8439 254° West 463 533 38,000  Level Denver Center
Tue 09:06:14 PM 39.3300 -101.0225 253° West 463 533 38,000  Level Denver Center
Tue 09:07:27 PM 39.2936 -101.1756 253° West 466 536 38,000  Level Denver Center
Tue 09:08:29 PM 39.2472 -101.3792 254° West 464 534 38,000  Level Denver Center
Tue 09:09:31 PM 39.2106 -101.5319 253° West 463 533 38,000  Level Denver Center
Tue 09:10:33 PM 39.1689 -101.7119 253° West 462 532 38,000  Level Denver Center
Tue 09:11:34 PM 39.1333 -101.8644 253° West 464 534 38,000  Level Denver Center
Tue 09:12:36 PM 39.0900 -102.0431 253° West 469 540 38,000  Level Denver Center
Tue 09:13:38 PM 39.0542 -102.1942 253° West 466 536 38,000  Level Denver Center
Tue 09:14:39 PM 39.0172 -102.3461 253° West 466 536 38,000  Level Denver Center
Tue 09:15:41 PM 38.9736 -102.5225 252° West 465 535 38,000  Level Denver Center
Tue 09:16:43 PM 38.9375 -102.6722 253° West 461 531 38,000  Level Denver Center
Tue 09:17:44 PM 38.8989 -102.8283 252° West 460 529 38,000  Level Denver Center
Tue 09:18:46 PM 38.8553 -103.0031 252° West 460 529 38,000  Level Denver Center
Tue 09:19:48 PM 38.8175 -103.1539 252° West 464 534 38,000  Level Denver Center
Tue 09:20:50 PM 38.7742 -103.3281 252° West 460 529 38,000  Level Denver Center
Tue 09:21:51 PM 38.7361 -103.4775 252° West 461 531 38,000  Level Denver Center
Tue 09:22:53 PM 38.6908 -103.6525 252° West 465 535 38,000  Level Denver Center
Tue 09:23:55 PM 38.6522 -103.8006 252° West 461 531 38,000  Level Denver Center
Tue 09:24:56 PM 38.6067 -103.9744 252° West 464 534 38,000  Level Denver Center
Tue 09:25:58 PM 38.5681 -104.1242 252° West 464 534 38,000  Level Denver Center
Tue 09:27:00 PM 38.5292 -104.2728 252° West 463 533 38,000  Level Denver Center
Tue 09:28:02 PM 38.4842 -104.4453 252° West 462 532 38,000  Level Denver Center
Tue 09:29:03 PM 38.4453 -104.5922 251° West 459 528 38,000  Level Denver Center
Tue 09:30:05 PM 38.3989 -104.7661 251° West 463 533 38,000  Level Denver Center
Tue 09:31:06 PM 38.3597 -104.9133 251° West 462 532 38,000  Level Denver Center
Tue 09:32:08 PM 38.3125 -105.0864 251° West 463 533 38,000  Level Denver Center
Tue 09:33:10 PM 38.2728 -105.2333 251° West 462 532 38,000  Level Denver Center
Tue 09:34:11 PM 38.2250 -105.4064 251° West 463 533 38,000  Level Denver Center
Tue 09:35:13 PM 38.1833 -105.5536 250° West 463 533 38,000  Level Denver Center
Tue 09:36:15 PM 38.1433 -105.7017 251° West 465 535 38,000  Level Denver Center
Tue 09:37:16 PM 38.0933 -105.8767 250° West 465 535 38,000  Level Denver Center
Tue 09:38:18 PM 38.0531 -106.0217 251° West 465 535 38,000  Level Denver Center
Tue 09:39:19 PM 38.0050 -106.1928 250° West 463 533 38,000  Level Denver Center
Tue 09:40:21 PM 37.9631 -106.3397 250° West 462 532 38,000  Level Denver Center
Tue 09:41:23 PM 37.9144 -106.5103 250° West 463 533 38,000  Level Denver Center
Tue 09:42:36 PM 37.8711 -106.6617 250° West 463 533 38,000  Level Denver Center
Tue 09:43:38 PM 37.8153 -106.8533 250° West 467 537 38,000  Level Denver Center
Tue 09:44:40 PM 37.7728 -106.9997 250° West 465 535 38,000  Level Denver Center
Tue 09:45:42 PM 37.7219 -107.1708 249° West 467 537 38,000  Level Denver Center
Tue 09:46:43 PM 37.6786 -107.3167 249° West 466 536 38,000  Level Denver Center
Tue 09:47:45 PM 37.6281 -107.4892 250° West 469 540 38,000  Level Denver Center
Tue 09:48:47 PM 37.5836 -107.6350 249° West 468 539 38,000  Level Denver Center
Tue 09:49:48 PM 37.5406 -107.7831 250° West 468 539 38,000  Level Denver Center
Tue 09:50:50 PM 37.4892 -107.9536 249° West 469 540 38,000  Level Denver Center
Tue 09:51:52 PM 37.4442 -108.1006 249° West 470 541 38,000  Level Denver Center
Tue 09:52:53 PM 37.3917 -108.2714 249° West 471 542 38,000  Level Denver Center
Tue 09:53:55 PM 37.3467 -108.4186 249° West 471 542 38,000  Level Denver Center
Tue 09:54:57 PM 37.2944 -108.5892 249° West 471 542 38,000  Level Denver Center
Tue 09:55:58 PM 37.2483 -108.7364 249° West 472 543 38,000  Level Denver Center
Tue 09:57:12 PM 37.1944 -108.9075 248° West 473 544 38,000  Level Denver Center
Tue 09:58:14 PM 37.1400 -109.0797 248° West 477 549 38,000  Level Denver Center
Tue 09:59:17 PM 37.0867 -109.2508 249° West 475 547 38,000  Level Denver Center
Tue 10:00:19 PM 37.0397 -109.3997 248° West 479 551 38,000  Level Denver Center
Tue 10:01:21 PM 36.9850 -109.5708 248° West 478 550 38,000  Level Denver Center
Tue 10:02:22 PM 36.9397 -109.7150 249° West 470 541 38,000  Level Denver Center
Tue 10:03:24 PM 36.8836 -109.8850 248° West 472 543 38,000  Level Denver Center
Tue 10:04:25 PM 36.8369 -110.0294 248° West 470 541 38,000  Level Denver Center
Tue 10:05:27 PM 36.7847 -110.1906 248° West 471 542 38,000  Level Denver Center
Tue 10:06:28 PM 36.7453 -110.3114 248° West 470 541 38,000  Level Denver Center
Tue 10:07:30 PM 36.6856 -110.4919 248° West 470 541 38,000  Level Denver Center
Tue 10:08:31 PM 36.6364 -110.6428 248° West 471 542 38,000  Level Denver Center
Tue 10:09:33 PM 36.5883 -110.7894 248° West 463 533 38,000  Level Denver Center
Tue 10:10:34 PM 36.5372 -110.9406 247° West 468 539 38,000  Level Denver Center
Tue 10:11:36 PM 36.4853 -111.0903 247° West 471 542 38,000  Level Denver Center
Tue 10:12:37 PM 36.4267 -111.2664 248° West 464 534 38,000  Level Denver Center
Tue 10:13:38 PM 36.3747 -111.4158 247° West 467 537 38,000  Level Denver Center
Tue 10:14:40 PM 36.3253 -111.5619 247° West 463 533 38,000  Level Denver Center
Tue 10:15:41 PM 36.2750 -111.7092 247° West 463 533 38,000  Level Denver Center
Tue 10:16:55 PM 36.2239 -111.8556 247° West 462 532 38,000  Level Denver Center
Tue 10:17:37 PM 36.1869 -111.9608 247° West 461 531 38,000  Level Los Angeles Center
Tue 10:18:39 PM 36.1267 -112.1358 247° West 463 533 38,000  Level Los Angeles Center
Tue 10:19:40 PM 36.0719 -112.2922 247° West 455 524 38,000  Level Los Angeles Center
Tue 10:20:42 PM 36.0219 -112.4331 246° West 449 517 38,000  Level Los Angeles Center
Tue 10:21:44 PM 35.9711 -112.5758 246° West 452 520 38,000  Level Los Angeles Center
Tue 10:22:46 PM 35.9181 -112.7292 247° West 457 526 38,000  Level Los Angeles Center
Tue 10:23:59 PM 35.8686 -112.8692 246° West 453 521 38,000  Level Los Angeles Center
Tue 10:25:01 PM 35.8083 -113.0364 246° West 452 520 38,000  Level Los Angeles Center
Tue 10:26:03 PM 35.7578 -113.1767 246° West 453 521 38,000  Level Los Angeles Center
Tue 10:27:05 PM 35.6983 -113.3419 246° West 449 517 38,000  Level Los Angeles Center
Tue 10:28:07 PM 35.6486 -113.4792 246° West 448 516 38,000  Level Los Angeles Center
Tue 10:29:08 PM 35.5953 -113.6156 244° Southwest 447 514 38,000  Level Los Angeles Center
Tue 10:30:10 PM 35.5417 -113.7511 244° Southwest 447 514 38,000  Level Los Angeles Center
Tue 10:31:12 PM 35.4869 -113.8867 244° Southwest 447 514 38,000  Level Los Angeles Center
Tue 10:32:13 PM 35.4214 -114.0425 243° Southwest 448 516 38,000  Level Los Angeles Center
Tue 10:33:16 PM 35.3667 -114.1775 244° Southwest 443 510 38,000  Level Los Angeles Center
Tue 10:34:17 PM 35.3125 -114.3122 244° Southwest 440 506 38,000  Level Los Angeles Center
Tue 10:35:18 PM 35.2672 -114.4211 243° Southwest 444 511 38,000  Level Los Angeles Center
Tue 10:36:20 PM 35.1997 -114.5803 243° Southwest 438 504 38,000  Level Los Angeles Center
Tue 10:37:21 PM 35.1419 -114.7172 243° Southwest 447 514 38,000  Level Los Angeles Center
Tue 10:38:23 PM 35.0767 -114.8772 244° Southwest 441 507 38,000  Level Los Angeles Center
Tue 10:39:25 PM 35.0214 -115.0097 243° Southwest 439 505 38,000  Level Los Angeles Center
Tue 10:40:26 PM 34.9653 -115.1439 243° Southwest 441 507 38,000  Level Los Angeles Center
Tue 10:41:30 PM 34.9097 -115.2747 243° Southwest 434 499 38,000  Level Los Angeles Center
Tue 10:42:29 PM 34.8525 -115.4064 242° Southwest 437 503 38,000  Level Los Angeles Center
Tue 10:43:31 PM 34.7953 -115.5400 242° Southwest 442 509 38,000 -339 Level Los Angeles Center
Tue 10:44:33 PM 34.7361 -115.6789 243° Southwest 438 504 37,300 -1,073 Descending Los Angeles Center
Tue 10:45:34 PM 34.6797 -115.8117 243° Southwest 442 509 35,800 -1,415 Descending Los Angeles Center
Tue 10:46:36 PM 34.6217 -115.9472 243° Southwest 450 518 34,400 -1,220 Descending Los Angeles Center
Tue 10:47:37 PM 34.5619 -116.0828 242° Southwest 455 524 33,300 -1,171 Descending Los Angeles Center
Tue 10:48:39 PM 34.5025 -116.2192 242° Southwest 457 526 32,000 -878 Descending Los Angeles Center
Tue 10:49:40 PM 34.4422 -116.3581 242° Southwest 465 535 31,500 -634 Descending Los Angeles Center
Tue 10:50:42 PM 34.3822 -116.4922 242° Southwest 455 524 30,700 -1,122 Descending Los Angeles Center
Tue 10:51:43 PM 34.3128 -116.6506 242° Southwest 446 513 29,200 -1,756 Descending Los Angeles Center
Tue 10:52:45 PM 34.2581 -116.7733 242° Southwest 422 486 27,100 -2,419 Descending Los Angeles Center
Tue 10:53:47 PM 34.2064 -116.8875 241° Southwest 395 455 24,200 -2,693 Descending Los Angeles Center
Tue 10:54:52 PM 34.1567 -116.9992 242° Southwest 382 440 21,400 -2,585 Descending Los Angeles Center
Tue 10:55:50 PM 34.1106 -117.1056 242° Southwest 361 415 18,900 -2,368 Descending Los Angeles Center
Tue 10:56:08 PM 34.1000 -117.1500 254° West 338 389 18,400 -1,692 Descending Southern California TRACON
Tue 10:57:08 PM 34.0500 -117.2333 234° Southwest 322 371 16,700 -1,650 Descending Southern California TRACON
Tue 10:58:08 PM 34.0333 -117.3500 260° West 309 356 15,100 -1,700 Descending Southern California TRACON
Tue 10:59:08 PM 34.0333 -117.4500 270° West 319 367 13,300 -1,850 Descending Southern California TRACON
Tue 11:00:08 PM 34.0333 -117.5500 270° West 289 333 11,400 -1,650 Descending Southern California TRACON
Tue 11:01:08 PM 34.0333 -117.6500 270° West 280 322 10,000 -950 Descending Southern California TRACON
Tue 11:02:08 PM 34.0167 -117.7333 256° West 263 303 9,500 -800 Descending Southern California TRACON
Tue 11:03:08 PM 34.0167 -117.8333 270° West 276 318 8,400 -1,250 Descending Southern California TRACON
Tue 11:04:08 PM 34.0000 -117.9167 256° West 272 313 7,000 -1,050 Descending Southern California TRACON
Tue 11:05:08 PM 33.9833 -118.0000 256° West 234 269 6,300 -900 Descending Southern California TRACON
Tue 11:06:08 PM 33.9833 -118.0667 270° West 227 261 5,200 -1,100 Descending Southern California TRACON
Tue 11:07:08 PM 33.9833 -118.1500 270° West 241 277 4,100 -1,100 Descending Southern California TRACON

Login

Don't have an account? Register now (free) for customized features, flight alerts, and more!